Time,TemperatureF,DewpointF,PressureIn,WindDirection,WindDirectionDegrees,WindSpeedMPH,WindSpeedGustMPH,Humidity,HourlyPrecipIn,Conditions,Clouds,dailyrainin,SoftwareType,DateUTC
2013-07-16 00:09:00,68.2,62.2,30.09,SW,225,0.9,1.1,81,0.00,,,0.00,WSDL version 420,2013-07-16 04:09:00,
2013-07-16 00:24:00,68.2,62.2,30.06,SW,225,0.0,2.2,81,0.00,,,0.00,WSDL version 420,2013-07-16 04:24:00,
2013-07-16 00:39:00,68.4,62.3,30.09,North,-999,-999.0,-999.0,81,0.00,,,0.00,WSDL version 420,2013-07-16 04:39:00,
2013-07-16 00:54:00,68.4,62.7,30.09,North,-999,-999.0,-999.0,82,0.00,,,0.00,WSDL version 420,2013-07-16 04:54:00,
2013-07-16 01:09:00,68.2,62.9,30.09,North,-999,-999.0,-999.0,83,0.00,,,0.00,WSDL version 420,2013-07-16 05:09:00,
2013-07-16 01:24:00,68.0,63.2,30.06,SW,225,0.0,0.0,86,0.00,,,0.00,WSDL version 420,2013-07-16 05:24:00,
2013-07-16 01:39:00,68.0,64.0,30.09,SW,225,1.3,2.0,88,0.00,,,0.00,WSDL version 420,2013-07-16 05:39:00,
2013-07-16 01:54:00,68.2,64.1,30.09,SW,225,0.9,1.6,87,0.00,,,0.00,WSDL version 420,2013-07-16 05:54:00,
2013-07-16 02:09:00,68.2,63.8,30.09,SW,225,0.0,1.1,86,0.00,,,0.00,WSDL version 420,2013-07-16 06:09:00,
2013-07-16 02:24:00,68.1,64.1,30.06,SW,225,0.0,0.0,88,0.00,,,0.00,WSDL version 420,2013-07-16 06:24:00,
2013-07-16 02:39:00,68.1,64.4,30.09,North,-999,-999.0,-999.0,88,0.00,,,0.00,WSDL version 420,2013-07-16 06:39:00,
2013-07-16 02:54:00,67.7,64.5,30.09,North,-999,-999.0,-999.0,90,0.00,,,0.00,WSDL version 420,2013-07-16 06:54:00,
2013-07-16 03:09:00,68.0,65.0,30.09,North,-999,-999.0,-999.0,90,0.00,,,0.00,WSDL version 420,2013-07-16 07:09:00,
2013-07-16 03:24:00,68.4,65.3,30.09,North,-999,-999.0,-999.0,90,0.00,,,0.00,WSDL version 420,2013-07-16 07:24:00,
2013-07-16 03:39:00,68.1,65.0,30.09,North,-999,-999.0,-999.0,89,0.00,,,0.00,WSDL version 420,2013-07-16 07:39:00,
2013-07-16 03:54:00,67.6,65.0,30.09,North,-999,-999.0,-999.0,91,0.00,,,0.00,WSDL version 420,2013-07-16 07:54:00,
2013-07-16 04:09:00,67.3,64.6,30.09,North,-999,-999.0,-999.0,91,0.00,,,0.00,WSDL version 420,2013-07-16 08:09:00,
2013-07-16 04:24:00,67.1,64.8,30.09,North,-999,-999.0,-999.0,92,0.00,,,0.00,WSDL version 420,2013-07-16 08:24:00,
2013-07-16 04:39:00,66.7,64.4,30.09,North,-999,-999.0,-999.0,92,0.00,,,0.00,WSDL version 420,2013-07-16 08:39:00,
2013-07-16 04:54:00,66.6,64.6,30.12,North,-999,-999.0,-999.0,93,0.00,,,0.00,WSDL version 420,2013-07-16 08:54:00,
2013-07-16 05:09:00,66.6,64.6,30.12,North,-999,-999.0,-999.0,93,0.00,,,0.00,WSDL version 420,2013-07-16 09:09:00,
2013-07-16 05:24:00,66.4,64.4,30.12,North,-999,-999.0,-999.0,93,0.00,,,0.00,WSDL version 420,2013-07-16 09:24:00,
2013-07-16 05:39:00,66.4,64.7,30.12,North,-999,-999.0,-999.0,94,0.00,,,0.00,WSDL version 420,2013-07-16 09:39:00,
2013-07-16 05:54:00,66.2,64.6,30.12,North,-999,-999.0,-999.0,94,0.00,,,0.00,WSDL version 420,2013-07-16 09:54:00,
2013-07-16 06:09:00,66.2,64.8,30.12,North,-999,-999.0,-999.0,94,0.00,,,0.00,WSDL version 420,2013-07-16 10:09:00,
2013-07-16 06:24:00,66.3,65.0,30.12,North,-999,-999.0,-999.0,96,0.00,,,0.00,WSDL version 420,2013-07-16 10:24:00,
2013-07-16 06:39:00,66.9,65.7,30.12,North,-999,-999.0,-999.0,97,0.00,,,0.00,WSDL version 420,2013-07-16 10:39:00,
2013-07-16 06:54:00,67.4,66.4,30.12,North,-999,-999.0,-999.0,97,0.00,,,0.00,WSDL version 420,2013-07-16 10:54:00,
2013-07-16 07:09:00,68.1,67.1,30.15,North,-999,-999.0,-999.0,97,0.00,,,0.00,WSDL version 420,2013-07-16 11:09:00,
2013-07-16 07:24:00,68.8,67.2,30.15,North,-999,-999.0,-999.0,94,0.00,,,0.00,WSDL version 420,2013-07-16 11:24:00,
2013-07-16 07:39:00,69.7,67.8,30.15,North,-999,-999.0,-999.0,93,0.00,,,0.00,WSDL version 420,2013-07-16 11:39:00,
2013-07-16 07:58:00,71.3,68.6,30.15,North,-999,-999.0,-999.0,91,0.00,,,0.00,WSDL version 420,2013-07-16 11:58:00,
2013-07-16 08:13:00,72.5,68.7,30.15,North,-999,-999.0,-999.0,88,0.00,,,0.00,WSDL version 420,2013-07-16 12:13:00,
2013-07-16 08:28:00,73.5,68.6,30.15,North,-999,-999.0,-999.0,83,0.00,,,0.00,WSDL version 420,2013-07-16 12:28:00,
2013-07-16 08:43:00,74.6,68.4,30.15,North,-999,-999.0,-999.0,81,0.00,,,0.00,WSDL version 420,2013-07-16 12:43:00,
2013-07-16 08:58:00,75.2,68.2,30.15,North,-999,-999.0,-999.0,79,0.00,,,0.00,WSDL version 420,2013-07-16 12:58:00,
2013-07-16 09:13:00,75.7,68.7,30.15,North,-999,-999.0,-999.0,79,0.00,,,0.00,WSDL version 420,2013-07-16 13:13:00,
2013-07-16 09:28:00,76.2,67.7,30.12,North,-999,-999.0,-999.0,75,0.00,,,0.00,WSDL version 420,2013-07-16 13:28:00,
2013-07-16 09:43:00,76.5,67.0,30.15,North,-999,-999.0,-999.0,73,0.00,,,0.00,WSDL version 420,2013-07-16 13:43:00,
2013-07-16 09:58:00,77.4,67.3,30.15,North,-999,-999.0,-999.0,71,0.00,,,0.00,WSDL version 420,2013-07-16 13:58:00,
2013-07-16 10:13:00,77.2,66.2,30.15,North,-999,-999.0,-999.0,69,0.00,,,0.00,WSDL version 420,2013-07-16 14:13:00,
2013-07-16 10:28:00,77.6,66.5,30.15,North,-999,-999.0,-999.0,68,0.00,,,0.00,WSDL version 420,2013-07-16 14:28:00,
2013-07-16 10:43:00,78.8,66.0,30.15,WNW,293,3.4,7.6,65,0.00,,,0.00,WSDL version 420,2013-07-16 14:43:00,
2013-07-16 10:58:00,79.1,66.1,30.12,North,-999,-999.0,-999.0,64,0.00,,,0.00,WSDL version 420,2013-07-16 14:58:00,
2013-07-16 11:13:00,78.7,66.4,30.15,North,-999,-999.0,-999.0,66,0.00,,,0.00,WSDL version 420,2013-07-16 15:13:00,
2013-07-16 11:28:00,78.9,65.7,30.12,North,-999,-999.0,-999.0,64,0.00,,,0.00,WSDL version 420,2013-07-16 15:28:00,
2013-07-16 11:43:00,79.4,65.2,30.12,NNW,338,8.7,8.7,61,0.00,,,0.00,WSDL version 420,2013-07-16 15:43:00,
2013-07-16 11:58:00,79.1,64.5,30.12,North,-999,-999.0,-999.0,62,0.00,,,0.00,WSDL version 420,2013-07-16 15:58:00,
2013-07-16 12:13:00,79.8,64.7,30.12,WNW,293,8.4,10.3,59,0.00,,,0.00,WSDL version 420,2013-07-16 16:13:00,
2013-07-16 12:28:00,79.7,63.8,30.12,West,270,4.7,11.0,58,0.00,,,0.00,WSDL version 420,2013-07-16 16:28:00,
2013-07-16 12:43:00,80.1,64.1,30.12,North,360,5.4,12.3,58,0.00,,,0.00,WSDL version 420,2013-07-16 16:43:00,
2013-07-16 12:58:00,81.0,64.9,30.12,WSW,248,4.3,8.7,57,0.00,,,0.00,WSDL version 420,2013-07-16 16:58:00,
2013-07-16 13:13:00,80.7,62.2,30.12,NNW,338,4.9,8.1,55,0.00,,,0.00,WSDL version 420,2013-07-16 17:13:00,
2013-07-16 13:28:00,80.5,61.5,30.12,NW,315,3.6,6.5,54,0.00,,,0.00,WSDL version 420,2013-07-16 17:28:00,
2013-07-16 13:43:00,81.3,63.5,30.09,North,360,4.9,12.1,53,0.00,,,0.00,WSDL version 420,2013-07-16 17:43:00,
2013-07-16 13:58:00,81.7,62.6,30.09,WNW,285,8.3,10.7,52,0.00,,,0.00,WSDL version 420,2013-07-16 17:58:00,
2013-07-16 14:13:00,82.0,62.6,30.09,NNE,23,2.5,10.1,52,0.00,,,0.00,WSDL version 420,2013-07-16 18:13:00,
2013-07-16 14:28:00,82.3,61.5,30.09,NW,323,4.3,8.7,50,0.00,,,0.00,WSDL version 420,2013-07-16 18:28:00,
2013-07-16 14:43:00,82.6,62.3,30.09,WNW,293,4.5,7.8,52,-99.99,,,-99.99,WSDL version 420,2013-07-16 18:43:00,
2013-07-16 14:58:00,82.2,61.1,30.09,WNW,293,3.1,3.6,50,0.00,,,0.00,WSDL version 420,2013-07-16 18:58:00,
2013-07-16 15:13:00,83.2,62.9,30.09,North,360,2.9,2.9,50,0.00,,,0.00,WSDL version 420,2013-07-16 19:13:00,
2013-07-16 15:28:00,82.3,61.0,30.09,NNW,338,2.2,3.8,48,0.00,,,0.00,WSDL version 420,2013-07-16 19:28:00,
2013-07-16 15:43:00,82.4,62.3,30.09,NNE,23,1.1,2.2,50,0.00,,,0.00,WSDL version 420,2013-07-16 19:43:00,
2013-07-16 15:58:00,82.0,61.8,30.09,North,-999,-999.0,-999.0,50,0.00,,,0.00,WSDL version 420,2013-07-16 19:58:00,
2013-07-16 16:13:00,81.9,61.5,30.09,NNW,341,3.5,4.3,50,0.00,,,0.00,WSDL version 420,2013-07-16 20:13:00,
2013-07-16 16:28:00,81.4,61.1,30.06,NW,309,3.0,6.9,51,0.00,,,0.00,WSDL version 420,2013-07-16 20:28:00,
2013-07-16 16:43:00,82.7,62.6,30.06,NNE,19,2.4,8.5,51,0.00,,,0.00,WSDL version 420,2013-07-16 20:43:00,
2013-07-16 16:58:00,83.2,62.4,30.09,NW,326,1.8,6.0,50,0.00,,,0.00,WSDL version 420,2013-07-16 20:58:00,
2013-07-16 17:13:00,82.4,62.2,30.06,NNW,343,3.3,6.3,51,0.00,,,0.00,WSDL version 420,2013-07-16 21:13:00,
2013-07-16 17:28:00,82.4,61.2,30.09,NNW,347,1.5,6.5,49,0.00,,,0.00,WSDL version 420,2013-07-16 21:28:00,
2013-07-16 17:43:00,81.8,62.4,30.06,NNW,329,1.5,4.5,52,0.00,,,0.00,WSDL version 420,2013-07-16 21:43:00,
2013-07-16 17:58:00,81.3,62.6,30.09,NW,315,2.2,3.8,53,0.00,,,0.00,WSDL version 420,2013-07-16 21:58:00,
2013-07-16 18:13:00,81.0,62.4,30.09,NNW,334,2.5,6.5,53,0.00,,,0.00,WSDL version 420,2013-07-16 22:13:00,
2013-07-16 18:28:00,80.0,62.5,30.06,NW,311,2.5,5.6,55,0.00,,,0.00,WSDL version 420,2013-07-16 22:28:00,
2013-07-16 18:43:00,78.9,62.8,30.09,NW,311,2.7,5.4,58,0.00,,,0.00,WSDL version 420,2013-07-16 22:43:00,
2013-07-16 18:58:00,78.6,62.4,30.09,NNW,342,3.1,5.8,57,0.00,,,0.00,WSDL version 420,2013-07-16 22:58:00,
2013-07-16 19:13:00,78.0,62.3,30.09,West,281,2.8,6.5,59,0.00,,,0.00,WSDL version 420,2013-07-16 23:13:00,
2013-07-16 19:28:00,76.8,62.1,30.09,WSW,248,2.0,5.6,61,0.00,,,0.00,WSDL version 420,2013-07-16 23:28:00,
2013-07-16 19:43:00,75.6,61.6,30.06,West,267,2.3,3.6,62,0.00,,,0.00,WSDL version 420,2013-07-16 23:43:00,
2013-07-16 19:58:00,74.6,62.4,30.09,SW,225,1.3,2.2,66,0.00,,,0.00,WSDL version 420,2013-07-16 23:58:00,
2013-07-16 20:13:00,73.6,62.8,30.09,SW,225,1.0,2.0,69,0.00,,,0.00,WSDL version 420,2013-07-17 00:13:00,
2013-07-16 20:28:00,73.0,62.9,30.09,SW,225,1.3,2.7,70,0.00,,,0.00,WSDL version 420,2013-07-17 00:28:00,
2013-07-16 20:43:00,72.4,63.0,30.06,SW,225,0.1,1.6,73,0.00,,,0.00,WSDL version 420,2013-07-17 00:43:00,
2013-07-16 20:58:00,71.8,63.1,30.09,WSW,248,0.3,1.3,74,0.00,,,0.00,WSDL version 420,2013-07-17 00:58:00,
2013-07-16 21:13:00,71.6,63.1,30.12,SW,225,1.2,2.0,75,0.00,,,0.00,WSDL version 420,2013-07-17 01:13:00,
2013-07-16 21:28:00,71.4,62.7,30.09,West,270,2.8,3.6,74,0.00,,,0.00,WSDL version 420,2013-07-17 01:28:00,
2013-07-16 21:43:00,71.6,62.2,30.12,WSW,255,0.6,5.6,73,0.00,,,0.00,WSDL version 420,2013-07-17 01:43:00,
2013-07-16 21:58:00,70.6,62.7,30.09,SW,225,0.0,0.9,76,0.00,,,0.00,WSDL version 420,2013-07-17 01:58:00,
2013-07-16 22:13:00,70.3,62.0,30.12,SSW,203,0.7,2.2,75,0.00,,,0.00,WSDL version 420,2013-07-17 02:13:00,
2013-07-16 22:28:00,70.0,62.4,30.12,SSW,203,0.0,0.0,77,0.00,,,0.00,WSDL version 420,2013-07-17 02:28:00,
2013-07-16 22:43:00,69.8,62.1,30.12,SW,225,0.0,0.0,76,0.00,,,0.00,WSDL version 420,2013-07-17 02:43:00,
2013-07-16 22:58:00,69.6,61.7,30.12,SW,225,0.2,1.1,76,0.00,,,0.00,WSDL version 420,2013-07-17 02:58:00,
2013-07-16 23:13:00,69.4,61.6,30.12,SSW,203,0.0,0.0,76,0.00,,,0.00,WSDL version 420,2013-07-17 03:13:00,
2013-07-16 23:28:00,68.7,61.4,30.12,SE,135,0.0,1.3,78,0.00,,,0.00,WSDL version 420,2013-07-17 03:28:00,
2013-07-16 23:43:00,68.4,61.2,30.12,SW,225,1.3,2.2,78,0.00,,,0.00,WSDL version 420,2013-07-17 03:43:00,
2013-07-16 23:58:00,68.7,61.2,30.12,SW,225,1.6,2.5,77,0.00,,,0.00,WSDL version 420,2013-07-17 03:58:00,